Time;durP1;ratioP1;P1;durP2;ratioP2;P2;SDS_P1;SDS_P2;PMS_P1;PMS_P2;Temp;Humidity;BMP_temperature;BMP_pressure;BME280_temperature;BME280_humidity;BME280_pressure;Samples;Min_cycle;Max_cycle;Signal;HPM_P1;HPM_P2
2022/08/21 00:01:20;;;;;;;10.43;6.28;;;;;;;27.08;63.58;99728.59;4947778;28;20039;-71
2022/08/21 00:03:45;;;;;;;10.43;6.30;;;;;;;27.05;63.73;99734.03;4949649;28;20034;-71
2022/08/21 00:06:11;;;;;;;12.10;6.45;;;;;;;26.96;63.74;99727.34;4956057;28;20050;-72
2022/08/21 00:08:36;;;;;;;15.45;6.82;;;;;;;26.89;65.00;99725.91;4950776;28;20038;-69
2022/08/21 00:11:04;;;;;;;9.52;6.25;;;;;;;26.85;65.37;99712.84;4951063;28;20058;-69
2022/08/21 00:13:30;;;;;;;8.57;6.13;;;;;;;26.92;65.53;99725.75;4950792;28;20055;-70
2022/08/21 00:15:55;;;;;;;10.98;6.88;;;;;;;26.95;66.04;99717.69;4949312;28;20043;-68
2022/08/21 00:18:22;;;;;;;10.13;6.45;;;;;;;26.94;66.70;99720.38;4945120;28;20421;-72
2022/08/21 00:20:48;;;;;;;11.48;6.93;;;;;;;26.89;66.79;99710.00;4949749;28;20028;-71
2022/08/21 00:23:35;;;;;;;12.95;6.68;;;;;;;26.91;66.92;99713.44;4928072;28;20048;-71
2022/08/21 00:26:00;;;;;;;9.73;6.65;;;;;;;26.88;66.57;99702.09;4927570;28;20139;-72
2022/08/21 00:28:26;;;;;;;9.82;5.90;;;;;;;26.82;66.40;99684.72;4928577;28;20052;-72
2022/08/21 00:30:51;;;;;;;10.73;6.20;;;;;;;26.76;67.80;99679.69;4928443;28;20039;-69
2022/08/21 00:33:17;;;;;;;9.40;6.25;;;;;;;26.78;67.92;99686.63;4928808;28;20125;-71
2022/08/21 00:35:44;;;;;;;11.75;6.65;;;;;;;26.74;68.02;99685.03;4928565;28;20032;-72
2022/08/21 00:38:10;;;;;;;8.05;6.18;;;;;;;26.76;68.33;99688.47;4928607;28;20043;-69
2022/08/21 00:40:45;;;;;;;10.75;6.53;;;;;;;26.75;68.28;99676.16;4919027;28;20512;-69
2022/08/21 00:43:13;;;;;;;8.30;6.80;;;;;;;26.76;68.37;99669.09;4909890;28;20549;-70
2022/08/21 00:45:39;;;;;;;7.50;6.20;;;;;;;26.83;68.41;99681.13;4909300;28;20040;-72
2022/08/21 00:48:06;;;;;;;9.90;6.35;;;;;;;26.76;68.89;99683.16;4909410;28;20085;-71
2022/08/21 00:50:35;;;;;;;10.05;6.95;;;;;;;26.63;69.42;99666.03;4893898;28;20082;-71
2022/08/21 00:53:05;;;;;;;7.80;6.22;;;;;;;26.43;69.47;99656.31;4909841;28;20115;-71
2022/08/21 00:55:31;;;;;;;15.60;6.88;;;;;;;26.55;69.94;99682.25;4928593;28;20078;-69
2022/08/21 00:57:59;;;;;;;14.50;6.85;;;;;;;26.41;70.28;99676.69;4934527;28;20074;-70
2022/08/21 01:00:31;;;;;;;10.07;6.43;;;;;;;26.46;69.85;99688.81;4932910;28;20031;-70
2022/08/21 01:02:59;;;;;;;8.50;6.65;;;;;;;26.42;70.17;99686.38;4932698;28;20038;-69
2022/08/21 01:05:26;;;;;;;10.02;6.38;;;;;;;26.39;70.82;99687.31;4947958;28;20023;-70
2022/08/21 01:07:53;;;;;;;8.82;6.72;;;;;;;26.33;71.12;99698.16;4933398;28;20130;-73
2022/08/21 01:10:19;;;;;;;10.65;6.95;;;;;;;26.31;70.61;99702.69;4930604;28;20028;-72
2022/08/21 01:12:45;;;;;;;12.68;7.03;;;;;;;26.14;71.11;99676.91;4930633;28;20028;-73
2022/08/21 01:15:14;;;;;;;10.88;6.88;;;;;;;26.27;70.99;99691.34;4929830;28;20405;-70
2022/08/21 01:17:40;;;;;;;8.40;6.47;;;;;;;26.34;70.39;99680.53;4930282;28;20478;-72
2022/08/21 01:20:09;;;;;;;9.38;6.60;;;;;;;26.46;70.49;99690.59;4946739;28;20027;-70
2022/08/21 01:22:34;;;;;;;10.20;7.05;;;;;;;26.37;71.20;99640.69;4912961;28;20066;-70
2022/08/21 01:25:00;;;;;;;9.25;6.80;;;;;;;26.66;71.16;99675.69;4941089;28;20481;-69
2022/08/21 01:27:25;;;;;;;9.73;7.10;;;;;;;26.61;71.58;99663.47;4933370;28;20108;-69
2022/08/21 01:29:53;;;;;;;11.07;7.43;;;;;;;26.60;72.57;99643.22;4931606;28;20051;-72
2022/08/21 01:32:20;;;;;;;10.05;7.30;;;;;;;26.68;72.77;99634.97;4930606;28;20067;-70
2022/08/21 01:34:48;;;;;;;8.98;6.80;;;;;;;26.84;72.54;99647.56;4933762;28;20050;-73
2022/08/21 01:37:14;;;;;;;10.30;7.28;;;;;;;26.82;72.35;99638.81;4945563;28;20028;-69
2022/08/21 01:39:41;;;;;;;10.77;6.97;;;;;;;26.81;72.17;99643.25;4949583;28;20035;-71
2022/08/21 01:42:07;;;;;;;10.20;7.15;;;;;;;26.82;71.88;99633.50;4937323;28;20035;-72
2022/08/21 01:44:33;;;;;;;10.27;7.22;;;;;;;26.65;70.94;99616.56;4931648;28;20544;-70
2022/08/21 01:47:00;;;;;;;13.57;7.13;;;;;;;26.78;70.83;99623.06;4930193;28;20028;-70
2022/08/21 01:49:26;;;;;;;11.85;7.30;;;;;;;26.81;71.53;99614.13;4930265;28;20115;-72
2022/08/21 01:51:52;;;;;;;9.20;6.85;;;;;;;26.57;71.99;99576.34;4930017;28;20112;-74
2022/08/21 01:54:18;;;;;;;10.93;7.38;;;;;;;26.71;71.84;99604.84;4929974;28;20031;-70
2022/08/21 01:56:46;;;;;;;14.57;7.38;;;;;;;26.70;72.27;99603.13;4940079;28;20027;-72
2022/08/21 01:59:13;;;;;;;11.38;7.38;;;;;;;26.66;72.59;99602.41;4949531;28;20034;-70
2022/08/21 02:01:41;;;;;;;8.73;7.20;;;;;;;26.69;72.78;99599.59;4949602;28;20035;-71
2022/08/21 02:04:08;;;;;;;9.95;7.20;;;;;;;26.69;73.08;99601.41;4949452;28;20114;-72
2022/08/21 02:06:35;;;;;;;10.27;8.18;;;;;;;26.68;72.92;99616.44;4949447;28;20039;-73
2022/08/21 02:09:05;;;;;;;10.90;7.53;;;;;;;26.63;73.88;99607.81;4949257;28;20031;-70
2022/08/21 02:11:32;;;;;;;8.88;7.20;;;;;;;26.59;73.97;99606.22;4949236;28;20532;-70
2022/08/21 02:13:57;;;;;;;10.55;8.02;;;;;;;26.59;74.79;99612.41;4949099;28;20061;-74
2022/08/21 02:16:24;;;;;;;13.15;8.07;;;;;;;26.48;74.79;99582.88;4949307;28;20480;-73
2022/08/21 02:18:50;;;;;;;11.15;7.72;;;;;;;26.63;74.90;99607.81;4949217;28;20123;-70
2022/08/21 02:21:15;;;;;;;10.52;8.05;;;;;;;26.59;75.03;99624.75;4947566;28;20122;-70
2022/08/21 02:23:41;;;;;;;12.35;8.02;;;;;;;26.36;75.28;99584.25;4949369;28;20030;-71
2022/08/21 02:26:08;;;;;;;9.32;7.80;;;;;;;26.54;75.16;99624.09;4948590;28;20024;-73
2022/08/21 02:28:35;;;;;;;11.40;7.65;;;;;;;26.50;75.69;99630.47;4949754;28;20035;-73
2022/08/21 02:31:01;;;;;;;11.48;7.75;;;;;;;26.18;75.49;99575.31;4949230;28;20024;-70
2022/08/21 02:33:27;;;;;;;11.70;8.18;;;;;;;26.39;76.28;99630.91;4949199;28;20177;-72
2022/08/21 02:35:53;;;;;;;9.70;7.38;;;;;;;26.33;76.77;99637.31;4948875;28;20538;-72
2022/08/21 02:38:22;;;;;;;13.65;8.40;;;;;;;26.27;77.21;99638.44;4950919;28;20031;-69
2022/08/21 02:40:50;;;;;;;12.25;7.53;;;;;;;26.22;77.07;99621.00;4952352;28;20070;-70
2022/08/21 02:43:17;;;;;;;10.77;7.97;;;;;;;26.16;77.12;99635.38;4952179;28;20110;-72
2022/08/21 02:45:46;;;;;;;11.55;8.13;;;;;;;25.80;78.89;99638.53;4952460;28;20105;-69
2022/08/21 02:48:15;;;;;;;11.95;8.40;;;;;;;25.65;79.19;99630.28;4934992;28;20089;-71
2022/08/21 02:50:44;;;;;;;10.70;8.23;;;;;;;25.53;79.82;99630.75;4952180;28;20035;-70
2022/08/21 02:53:15;;;;;;;9.45;7.70;;;;;;;25.43;79.31;99606.47;4951782;28;20031;-74
2022/08/21 02:55:40;;;;;;;12.15;9.02;;;;;;;25.59;79.23;99634.97;4952385;28;20035;-72
2022/08/21 02:58:07;;;;;;;11.98;8.13;;;;;;;25.57;78.62;99627.09;4952215;28;20378;-72
2022/08/21 03:00:34;;;;;;;10.18;8.35;;;;;;;25.55;78.59;99638.66;4952549;28;20085;-69
2022/08/21 03:03:00;;;;;;;11.13;8.73;;;;;;;25.54;77.61;99619.28;4952011;28;20126;-69
2022/08/21 03:05:28;;;;;;;11.85;8.65;;;;;;;25.49;77.55;99619.44;4951707;28;20058;-74
2022/08/21 03:07:54;;;;;;;11.23;8.77;;;;;;;25.78;77.03;99654.47;4952135;28;20504;-70
2022/08/21 03:10:21;;;;;;;13.43;8.80;;;;;;;25.82;77.80;99673.69;4952428;28;20031;-71
2022/08/21 03:12:47;;;;;;;12.98;8.50;;;;;;;25.53;78.96;99673.03;4951533;28;20043;-72
2022/08/21 03:15:16;;;;;;;13.68;9.02;;;;;;;24.93;82.68;99689.25;4952122;28;20051;-71
2022/08/21 03:17:42;;;;;;;12.63;9.18;;;;;;;24.75;83.87;99700.44;4951827;28;20114;-72
2022/08/21 03:20:09;;;;;;;11.93;8.98;;;;;;;24.16;88.26;99695.31;4952006;28;20066;-71
2022/08/21 03:22:35;;;;;;;14.55;9.18;;;;;;;23.96;89.99;99710.88;4952269;28;20066;-71
2022/08/21 03:25:01;;;;;;;13.70;9.88;;;;;;;23.37;93.05;99692.34;4951838;28;20497;-71
2022/08/21 03:27:28;;;;;;;15.25;9.50;;;;;;;23.57;92.59;99718.09;4952003;28;20028;-68
2022/08/21 03:29:54;;;;;;;13.77;9.02;;;;;;;23.55;89.95;99719.94;4951798;28;20114;-75
2022/08/21 03:32:20;;;;;;;13.65;9.20;;;;;;;23.08;90.72;99704.50;4951527;28;20027;-72
2022/08/21 03:34:46;;;;;;;11.50;7.68;;;;;;;22.78;88.87;99688.63;4951485;28;20127;-69
2022/08/21 03:37:13;;;;;;;12.75;7.30;;;;;;;22.77;88.04;99731.63;4951881;28;20056;-71
2022/08/21 03:39:41;;;;;;;11.48;7.00;;;;;;;22.42;88.08;99743.88;4951502;28;20485;-71
2022/08/21 03:42:07;;;;;;;11.27;7.88;;;;;;;22.40;88.00;99703.59;4951554;28;20027;-72
2022/08/21 03:44:33;;;;;;;18.40;7.18;;;;;;;22.71;86.45;99746.72;4951642;28;20031;-71
2022/08/21 03:46:58;;;;;;;12.55;6.78;;;;;;;22.67;86.17;99756.44;4951348;28;20084;-69
2022/08/21 03:49:24;;;;;;;14.27;7.00;;;;;;;22.41;86.36;99744.78;4950173;28;20031;-71
2022/08/21 03:51:50;;;;;;;11.93;5.30;;;;;;;22.13;86.96;99750.66;4951536;28;20039;-69
2022/08/21 03:54:16;;;;;;;13.40;5.13;;;;;;;22.10;87.02;99755.09;4952044;28;20031;-68
2022/08/21 03:56:41;;;;;;;10.55;5.70;;;;;;;22.19;86.18;99768.03;4950992;28;20031;-70
2022/08/21 03:59:07;;;;;;;10.07;4.97;;;;;;;22.19;86.49;99751.41;4951015;28;20023;-71
2022/08/21 04:01:33;;;;;;;11.43;5.75;;;;;;;22.16;86.22;99768.13;4950948;28;20477;-70
2022/08/21 04:03:59;;;;;;;13.15;5.80;;;;;;;22.30;85.92;99762.53;4951033;28;20485;-71
2022/08/21 04:06:26;;;;;;;13.70;6.25;;;;;;;22.26;86.07;99761.75;4951414;28;20034;-70
2022/08/21 04:08:52;;;;;;;12.57;5.70;;;;;;;22.43;85.35;99760.50;4951367;28;20036;-71
2022/08/21 04:11:18;;;;;;;21.33;6.15;;;;;;;22.19;85.01;99727.75;4951208;28;20023;-74
2022/08/21 04:13:43;;;;;;;13.30;5.97;;;;;;;22.35;84.83;99763.28;4950933;28;20468;-70
2022/08/21 04:16:09;;;;;;;12.32;5.28;;;;;;;22.21;85.70;99760.13;4950799;28;20031;-71
2022/08/21 04:18:34;;;;;;;14.73;5.97;;;;;;;22.19;85.93;99757.50;4950971;28;20547;-71
2022/08/21 04:21:01;;;;;;;15.15;5.97;;;;;;;22.29;85.31;99773.94;4951187;28;20042;-69
2022/08/21 04:23:27;;;;;;;12.60;6.15;;;;;;;21.86;85.31;99717.06;4951021;28;20065;-67
2022/08/21 04:25:54;;;;;;;13.50;6.15;;;;;;;22.56;84.22;99766.38;4951153;28;20427;-71
2022/08/21 04:28:20;;;;;;;13.80;6.15;;;;;;;22.64;84.06;99768.81;4951148;28;20042;-70
2022/08/21 04:30:46;;;;;;;9.60;5.20;;;;;;;22.36;84.40;99766.81;4950959;28;20074;-72
2022/08/21 04:33:12;;;;;;;11.50;5.72;;;;;;;22.54;83.76;99757.63;4950701;28;20031;-69
2022/08/21 04:35:37;;;;;;;14.48;6.18;;;;;;;22.67;82.81;99761.72;4951247;28;20034;-75
2022/08/21 04:38:03;;;;;;;15.65;6.00;;;;;;;22.83;82.86;99763.94;4951105;28;20440;-72
2022/08/21 04:40:29;;;;;;;12.20;5.28;;;;;;;22.94;81.40;99756.66;4950906;28;20035;-68
2022/08/21 04:43:02;;;;;;;9.38;5.80;;;;;;;22.70;81.77;99759.00;4951005;28;20505;-71
2022/08/21 04:45:36;;;;;;;11.35;5.60;;;;;;;22.88;80.86;99762.94;4950745;28;20077;-71
2022/08/21 04:50:42;;;;;;;13.70;6.30;;;;;;;22.95;80.11;99774.16;4950194;28;20055;-69
2022/08/21 04:53:24;;;;;;;10.38;5.50;;;;;;;23.10;80.44;99765.91;5051348;28;20033;-69
2022/08/21 04:55:52;;;;;;;11.38;5.90;;;;;;;23.19;79.72;99770.09;5051676;28;20453;-71
2022/08/21 04:58:20;;;;;;;12.43;6.03;;;;;;;23.42;78.84;99774.72;5051042;28;20044;-69
2022/08/21 05:00:47;;;;;;;14.18;6.25;;;;;;;23.41;78.34;99769.50;5033369;28;20395;-69
2022/08/21 05:03:14;;;;;;;9.63;5.57;;;;;;;23.32;76.28;99748.69;5051571;28;20029;-71
2022/08/21 05:05:40;;;;;;;13.93;6.05;;;;;;;23.47;77.80;99765.84;5051618;28;20495;-69
2022/08/21 05:08:09;;;;;;;12.35;5.22;;;;;;;23.77;76.48;99757.97;5051319;28;20059;-68
2022/08/21 05:10:35;;;;;;;13.20;5.38;;;;;;;23.82;74.71;99756.06;5051125;28;20542;-70
2022/08/21 05:13:00;;;;;;;11.68;5.15;;;;;;;23.71;73.97;99759.88;5051507;28;20111;-72
2022/08/21 05:15:26;;;;;;;10.43;4.95;;;;;;;23.70;73.58;99739.72;5051458;28;20112;-71
2022/08/21 05:17:52;;;;;;;11.43;4.82;;;;;;;23.92;72.93;99756.69;5051332;28;20158;-72
2022/08/21 05:20:19;;;;;;;9.80;5.03;;;;;;;23.87;72.46;99754.16;5051170;28;20644;-72
2022/08/21 05:22:45;;;;;;;11.15;4.80;;;;;;;23.93;72.76;99746.09;5051185;28;20029;-70
2022/08/21 05:25:11;;;;;;;10.40;4.85;;;;;;;23.79;72.03;99714.84;5051369;28;20059;-70
2022/08/21 05:27:38;;;;;;;11.15;5.10;;;;;;;24.18;72.09;99750.63;5051394;28;20021;-69
2022/08/21 05:30:07;;;;;;;10.98;4.82;;;;;;;24.32;71.05;99752.84;5051505;28;20037;-72
2022/08/21 05:32:32;;;;;;;11.10;5.10;;;;;;;24.20;71.06;99748.78;5000000;28;20049;-74
2022/08/21 05:34:58;;;;;;;14.68;5.07;;;;;;;24.49;70.77;99754.94;5051166;28;20021;-69
2022/08/21 05:37:23;;;;;;;10.23;5.18;;;;;;;24.76;68.90;99755.84;5033144;28;20036;-72
2022/08/21 05:39:49;;;;;;;11.10;5.15;;;;;;;24.89;68.85;99744.88;5050882;28;20040;-70
2022/08/21 05:42:14;;;;;;;9.45;5.10;;;;;;;25.10;67.92;99744.13;5050805;28;20127;-70
2022/08/21 05:44:40;;;;;;;9.50;5.00;;;;;;;25.24;66.96;99740.16;5050894;28;20029;-72
2022/08/21 05:47:08;;;;;;;9.32;5.22;;;;;;;25.12;65.85;99738.78;5050937;28;20024;-72
2022/08/21 05:49:34;;;;;;;11.35;5.25;;;;;;;25.11;66.02;99734.41;4950501;28;20075;-74
2022/08/21 05:51:59;;;;;;;12.60;4.72;;;;;;;25.21;65.26;99735.84;4950112;28;20023;-70
2022/08/21 05:54:25;;;;;;;8.23;4.63;;;;;;;25.31;65.98;99737.22;4999007;28;20515;-72
2022/08/21 05:56:51;;;;;;;13.18;5.22;;;;;;;25.49;66.74;99734.88;5015066;28;20045;-73
2022/08/21 05:59:18;;;;;;;10.00;4.30;;;;;;;25.44;64.08;99728.91;5050751;28;20494;-72
2022/08/21 06:01:45;;;;;;;11.73;5.45;;;;;;;25.35;65.04;99746.75;5015772;28;20045;-73
2022/08/21 06:04:11;;;;;;;9.70;6.40;;;;;;;25.34;65.20;99747.69;5050442;28;20541;-72
2022/08/21 06:06:36;;;;;;;11.30;7.57;;;;;;;25.28;65.58;99716.19;5050545;28;20054;-76
2022/08/21 06:09:03;;;;;;;11.85;7.15;;;;;;;25.26;66.19;99739.19;5050439;28;20036;-74
2022/08/21 06:11:29;;;;;;;12.43;5.82;;;;;;;25.27;65.45;99740.03;5050719;28;20036;-72
2022/08/21 06:13:55;;;;;;;11.30;5.30;;;;;;;25.46;67.28;99734.97;5054048;28;20111;-73
2022/08/21 06:16:22;;;;;;;16.02;6.22;;;;;;;25.73;64.49;99734.88;5054761;28;20079;-72
2022/08/21 06:18:48;;;;;;;10.82;5.40;;;;;;;25.86;64.61;99725.56;5054702;28;20029;-77
2022/08/21 06:21:13;;;;;;;9.73;5.40;;;;;;;26.02;62.87;99724.97;5054646;28;20043;-72
2022/08/21 06:23:40;;;;;;;9.88;5.43;;;;;;;26.18;63.67;99739.31;5054358;28;20029;-73
2022/08/21 06:26:06;;;;;;;12.40;6.25;;;;;;;26.24;62.26;99728.50;5055115;28;20033;-74
2022/08/21 06:28:52;;;;;;;11.20;6.22;;;;;;;26.41;62.25;99719.91;5018389;28;20045;-71
2022/08/21 06:31:20;;;;;;;9.27;5.70;;;;;;;26.54;62.04;99727.34;5032119;28;20507;-74
2022/08/21 06:33:47;;;;;;;11.73;6.10;;;;;;;26.48;61.55;99726.66;5032189;28;20048;-72
2022/08/21 06:36:13;;;;;;;11.13;6.00;;;;;;;26.49;60.41;99730.16;5013369;28;20041;-72
2022/08/21 06:38:39;;;;;;;8.60;5.80;;;;;;;26.63;63.19;99730.47;5011839;28;20034;-73
2022/08/21 06:41:04;;;;;;;17.30;6.88;;;;;;;26.74;61.30;99723.88;5031429;28;20041;-77
2022/08/21 06:43:30;;;;;;;14.48;7.28;;;;;;;26.84;61.48;99724.34;5031690;28;20064;-71
2022/08/21 06:45:57;;;;;;;8.80;5.88;;;;;;;26.91;61.63;99726.66;5031645;28;20029;-75
2022/08/21 06:48:23;;;;;;;9.18;6.10;;;;;;;26.91;60.67;99723.19;5020851;28;20049;-70
2022/08/21 06:50:48;;;;;;;11.52;6.82;;;;;;;26.95;62.81;99720.34;5022671;28;20038;-73
2022/08/21 06:53:16;;;;;;;11.70;5.93;;;;;;;27.08;59.99;99722.47;5031520;28;20080;-71
2022/08/21 06:55:42;;;;;;;9.35;5.47;;;;;;;27.06;62.03;99724.31;5031405;28;20466;-73
2022/08/21 06:58:09;;;;;;;10.93;6.43;;;;;;;27.02;60.17;99722.72;5031329;28;20033;-70
2022/08/21 07:00:35;;;;;;;13.75;6.18;;;;;;;27.00;60.09;99721.91;5048807;28;20049;-72
2022/08/21 07:03:00;;;;;;;8.13;5.60;;;;;;;27.03;61.51;99719.13;5053262;28;20025;-70
2022/08/21 07:05:31;;;;;;;9.88;5.88;;;;;;;27.01;61.41;99726.28;5053211;28;20044;-75
2022/08/21 07:07:57;;;;;;;11.48;5.82;;;;;;;27.04;60.02;99732.31;5053260;28;20049;-73
2022/08/21 07:10:26;;;;;;;15.77;5.70;;;;;;;26.98;63.30;99729.06;5053276;28;20025;-70
2022/08/21 07:12:53;;;;;;;;;;;;;;;27.16;61.22;99730.06;5053628;28;20064;-70
2022/08/21 07:15:19;;;;;;;11.52;8.05;;;;;;;27.05;59.13;99725.22;5053093;28;19970;-72
2022/08/21 07:17:44;;;;;;;14.07;8.90;;;;;;;27.20;60.36;99719.25;5052541;28;20623;-73
2022/08/21 07:20:11;;;;;;;16.02;11.98;;;;;;;27.34;58.81;99705.41;5053381;28;20029;-72
2022/08/21 07:22:38;;;;;;;14.75;11.90;;;;;;;27.56;59.75;99710.59;5053264;28;20029;-72
2022/08/21 07:25:05;;;;;;;17.58;12.93;;;;;;;27.70;62.30;99714.41;5053028;28;20025;-73
2022/08/21 07:27:31;;;;;;;18.00;12.57;;;;;;;27.74;58.76;99700.09;5052826;28;20025;-71
2022/08/21 07:29:57;;;;;;;14.75;13.05;;;;;;;27.71;60.16;99679.00;4952570;28;20482;-70
2022/08/21 07:32:22;;;;;;;16.15;13.07;;;;;;;27.99;58.15;99694.47;4951661;28;20027;-74
2022/08/21 07:34:47;;;;;;;15.32;12.23;;;;;;;28.19;59.46;99696.19;4951819;28;20034;-74
2022/08/21 07:37:13;;;;;;;15.18;12.73;;;;;;;28.32;56.03;99700.91;4951992;28;20032;-73
2022/08/21 07:39:38;;;;;;;15.00;11.95;;;;;;;28.44;57.90;99699.41;4951784;28;20088;-74
2022/08/21 07:42:04;;;;;;;15.93;12.38;;;;;;;28.31;56.21;99670.84;4951805;28;20066;-76
2022/08/21 07:44:29;;;;;;;16.80;12.35;;;;;;;28.45;57.80;99685.22;4951607;28;20031;-71
2022/08/21 07:46:55;;;;;;;13.20;11.07;;;;;;;28.56;55.47;99670.47;4951556;28;20023;-73
2022/08/21 07:49:20;;;;;;;12.77;11.05;;;;;;;28.70;53.11;99671.63;4961716;28;20112;-70
2022/08/21 07:51:46;;;;;;;18.73;11.38;;;;;;;28.85;53.55;99675.28;4970605;28;20035;-73
2022/08/21 07:54:11;;;;;;;13.60;10.98;;;;;;;28.78;55.16;99648.16;4970880;28;20084;-70
2022/08/21 07:56:37;;;;;;;13.55;10.32;;;;;;;28.89;54.79;99658.22;4970720;28;20064;-70
2022/08/21 07:59:02;;;;;;;12.95;11.13;;;;;;;28.82;54.35;99652.34;4970794;28;20459;-75
2022/08/21 08:01:28;;;;;;;19.55;11.43;;;;;;;28.77;52.90;99634.94;4953500;28;20037;-73
2022/08/21 08:03:54;;;;;;;14.93;11.27;;;;;;;28.67;52.70;99608.84;4970788;28;20054;-70
2022/08/21 08:06:20;;;;;;;14.73;11.82;;;;;;;28.95;54.08;99649.06;4970724;28;20042;-71
2022/08/21 08:08:46;;;;;;;15.23;11.75;;;;;;;28.82;54.48;99644.38;4970540;28;20023;-73
2022/08/21 08:11:15;;;;;;;18.08;12.38;;;;;;;28.82;52.60;99649.69;4970429;28;20400;-70
2022/08/21 08:13:48;;;;;;;13.52;11.60;;;;;;;28.84;54.22;99644.31;4970497;28;20031;-73
2022/08/21 08:16:14;;;;;;;13.43;12.00;;;;;;;28.82;54.00;99638.22;4970420;28;20035;-70
2022/08/21 08:18:41;;;;;;;15.48;12.32;;;;;;;28.75;52.69;99637.69;4970436;28;20029;-76
2022/08/21 08:21:06;;;;;;;38.55;14.07;;;;;;;28.66;53.51;99625.72;4970747;28;20049;-73
2022/08/21 08:23:32;;;;;;;13.95;11.82;;;;;;;28.68;53.33;99626.50;4970241;28;20023;-70
2022/08/21 08:25:58;;;;;;;14.25;12.68;;;;;;;28.69;53.40;99630.91;4970347;28;20118;-73
2022/08/21 08:28:24;;;;;;;13.88;12.02;;;;;;;28.69;53.74;99627.41;4970206;28;20606;-72
2022/08/21 08:30:50;;;;;;;15.02;13.43;;;;;;;28.72;55.06;99625.44;4966684;28;20113;-74
2022/08/21 08:33:16;;;;;;;13.82;12.38;;;;;;;28.76;52.48;99623.44;4953042;28;20462;-73
2022/08/21 08:35:47;;;;;;;14.77;12.68;;;;;;;28.80;52.37;99609.09;4969579;28;20076;-71
2022/08/21 08:38:16;;;;;;;14.75;12.45;;;;;;;28.86;53.00;99605.25;4970311;28;20046;-70
2022/08/21 08:40:45;;;;;;;;;;;;;;;28.82;52.26;99611.66;4970636;28;20039;-75
2022/08/21 08:43:13;;;;;;;16.08;12.00;;;;;;;28.62;55.18;99573.69;4969970;28;19914;-72
2022/08/21 08:45:41;;;;;;;15.82;12.40;;;;;;;28.77;56.89;99598.63;4970020;28;20048;-72
2022/08/21 08:48:13;;;;;;;17.00;13.20;;;;;;;28.74;53.94;99601.44;4952547;28;20031;-73
2022/08/21 08:50:48;;;;;;;16.23;12.30;;;;;;;28.71;53.05;99596.28;4969629;28;20409;-72
2022/08/21 08:53:33;;;;;;;14.43;12.85;;;;;;;28.75;52.93;99596.97;4969772;28;20489;-70
2022/08/21 08:56:01;;;;;;;13.77;12.38;;;;;;;28.62;53.29;99594.09;4969621;28;20525;-73
2022/08/21 08:58:34;;;;;;;13.23;11.87;;;;;;;28.27;54.74;99599.41;4968823;28;20050;-71
2022/08/21 09:01:00;;;;;;;17.25;12.80;;;;;;;28.06;55.73;99602.19;4959959;28;20463;-72
2022/08/21 09:03:30;;;;;;;15.98;13.18;;;;;;;27.97;56.08;99603.47;4958840;28;20405;-71
2022/08/21 09:06:05;;;;;;;16.52;14.35;;;;;;;27.76;57.40;99611.56;4960410;28;20485;-73
2022/08/21 09:08:58;;;;;;;20.15;14.10;;;;;;;27.50;57.21;99604.84;4960760;28;20019;-70
2022/08/21 09:12:03;;;;;;;15.40;13.80;;;;;;;27.38;59.11;99603.59;4960600;28;20038;-72
2022/08/21 09:14:56;;;;;;;15.80;14.02;;;;;;;27.37;60.31;99608.97;4949698;28;20122;-71
2022/08/21 09:17:40;;;;;;;17.42;11.25;;;;;;;27.39;65.30;99613.28;4950207;29;20045;-71
2022/08/21 09:20:15;;;;;;;13.90;8.57;;;;;;;27.50;65.40;99612.78;4950123;29;20026;-72
2022/08/21 09:23:16;;;;;;;16.40;8.35;;;;;;;27.01;68.34;99623.84;4947476;29;20572;-71
2022/08/21 09:25:53;;;;;;;11.82;7.03;;;;;;;26.13;70.83;99612.56;4949252;29;20118;-72
2022/08/21 09:28:18;;;;;;;9.80;7.43;;;;;;;25.32;74.79;99622.72;4949636;29;20046;-73
2022/08/21 09:30:44;;;;;;;16.55;8.90;;;;;;;25.08;77.59;99616.56;4938927;29;20031;-72
2022/08/21 09:33:12;;;;;;;24.48;16.45;;;;;;;25.10;78.19;99584.81;4949014;28;20478;-73
2022/08/21 09:35:49;;;;;;;15.85;10.75;;;;;;;25.28;78.37;99615.81;4938926;29;20044;-73
2022/08/21 09:38:34;;;;;;;16.35;8.65;;;;;;;25.26;78.26;99616.78;4930461;29;20048;-76
2022/08/21 09:41:06;;;;;;;14.25;9.52;;;;;;;25.24;77.26;99627.41;4939931;29;20414;-72
2022/08/21 09:43:33;;;;;;;14.55;9.45;;;;;;;25.00;78.90;99627.41;4929559;29;20575;-71
2022/08/21 09:46:02;;;;;;;16.80;8.57;;;;;;;25.18;79.01;99631.16;4932724;29;20521;-73
2022/08/21 09:48:27;;;;;;;15.98;9.13;;;;;;;25.14;78.85;99602.28;4945307;28;20094;-70
2022/08/21 09:50:53;;;;;;;11.60;8.48;;;;;;;25.03;77.74;99622.03;5017570;28;20069;-74
2022/08/21 09:53:26;;;;;;;12.25;8.52;;;;;;;25.25;76.23;99639.72;4968353;28;20041;-76
2022/08/21 09:58:46;;;;;;;14.07;8.10;;;;;;;24.95;76.78;99623.19;4968914;28;20037;-72
2022/08/21 10:01:23;;;;;;;16.40;9.20;;;;;;;24.71;77.20;99596.75;4968404;28;20027;-72
2022/08/21 10:04:01;;;;;;;15.73;7.85;;;;;;;24.87;76.84;99629.63;4968487;28;20435;-70
2022/08/21 10:06:28;;;;;;;9.43;7.78;;;;;;;24.86;76.85;99633.19;4967776;28;20030;-73
2022/08/21 10:09:07;;;;;;;10.48;7.30;;;;;;;24.71;78.21;99638.97;4968432;28;20085;-72
2022/08/21 10:11:34;;;;;;;23.45;8.52;;;;;;;24.75;78.40;99624.78;4968278;28;20023;-75
2022/08/21 10:14:12;;;;;;;12.95;8.00;;;;;;;24.80;79.54;99643.06;4968498;28;20066;-70
2022/08/21 10:17:05;;;;;;;12.23;8.85;;;;;;;24.58;80.91;99635.88;4968201;28;20477;-72
2022/08/21 10:19:48;;;;;;;12.55;7.68;;;;;;;24.43;81.14;99641.69;4967010;28;20039;-72
2022/08/21 10:22:16;;;;;;;14.98;8.48;;;;;;;24.37;82.05;99635.72;5017384;28;20046;-71
2022/08/21 10:25:19;;;;;;;11.50;8.80;;;;;;;24.06;84.58;99636.72;4968543;28;20042;-72
2022/08/21 10:27:53;;;;;;;14.70;9.20;;;;;;;24.10;85.09;99628.69;4967857;28;20019;-72
2022/08/21 10:30:36;;;;;;;13.45;8.98;;;;;;;24.31;84.11;99630.66;4950767;28;20481;-74
2022/08/21 10:33:18;;;;;;;11.00;7.38;;;;;;;24.10;84.17;99634.84;4968116;28;20053;-71
2022/08/21 10:36:12;;;;;;;9.45;6.47;;;;;;;23.87;85.63;99633.75;4967713;28;20023;-74
2022/08/21 10:38:50;;;;;;;10.43;7.43;;;;;;;24.00;85.38;99630.75;4968122;28;20038;-73
2022/08/21 10:41:34;;;;;;;12.73;8.13;;;;;;;24.14;83.64;99625.03;4968047;28;20088;-73
2022/08/21 10:44:22;;;;;;;11.15;7.80;;;;;;;24.11;83.88;99635.69;4967562;28;20046;-70
2022/08/21 10:46:55;;;;;;;12.13;8.63;;;;;;;24.13;83.58;99608.38;4967936;28;20031;-73
2022/08/21 10:49:31;;;;;;;10.70;7.60;;;;;;;24.03;83.00;99599.88;4967765;28;20047;-71
2022/08/21 10:52:23;;;;;;;10.98;7.72;;;;;;;23.81;82.97;99591.78;4968205;28;20027;-74
2022/08/21 10:54:54;;;;;;;10.50;6.85;;;;;;;23.98;83.41;99625.53;4968212;28;20488;-71
2022/08/21 10:57:58;;;;;;;10.75;8.13;;;;;;;23.85;82.78;99616.25;4967983;28;20062;-72
2022/08/21 11:00:33;;;;;;;12.10;7.30;;;;;;;23.90;82.56;99624.88;4971559;28;20513;-72
2022/08/21 11:03:23;;;;;;;14.23;8.07;;;;;;;23.89;82.81;99604.72;4971941;28;20078;-72
2022/08/21 11:05:55;;;;;;;11.00;7.53;;;;;;;24.00;82.23;99617.59;4972080;28;20386;-72
2022/08/21 11:08:31;;;;;;;13.13;8.75;;;;;;;23.88;82.86;99608.28;4971181;28;20030;-73
2022/08/21 11:11:03;;;;;;;12.90;8.35;;;;;;;24.10;81.66;99610.25;4970819;28;20049;-69
2022/08/21 11:13:40;;;;;;;10.75;8.27;;;;;;;23.95;82.90;99609.84;4970948;28;20030;-69
2022/08/21 11:16:14;;;;;;;13.32;7.93;;;;;;;23.71;85.18;99592.97;4970968;28;20528;-71
2022/08/21 11:19:21;;;;;;;13.35;8.85;;;;;;;24.00;83.90;99597.38;4971058;28;20031;-71
2022/08/21 11:22:02;;;;;;;12.48;9.20;;;;;;;23.95;83.08;99590.50;4913416;29;20166;-71
2022/08/21 11:24:57;;;;;;;12.55;7.82;;;;;;;24.10;82.26;99592.66;4912926;29;20036;-71
2022/08/21 11:27:40;;;;;;;13.18;8.65;;;;;;;24.43;81.69;99584.50;4913454;29;20044;-71
2022/08/21 11:30:07;;;;;;;12.80;6.85;;;;;;;24.25;79.39;99587.78;4913150;29;20070;-71
2022/08/21 11:32:44;;;;;;;11.23;7.75;;;;;;;24.32;79.37;99579.59;4913088;29;20091;-71
2022/08/21 11:35:50;;;;;;;18.52;8.57;;;;;;;24.41;78.51;99562.59;4913170;29;20028;-70
2022/08/21 11:38:16;;;;;;;9.73;7.50;;;;;;;24.46;78.29;99581.78;4818707;29;20041;-71
2022/08/21 11:40:47;;;;;;;11.15;7.60;;;;;;;24.65;77.63;99562.66;4817368;29;20050;-70
2022/08/21 11:44:00;;;;;;;10.98;7.22;;;;;;;24.77;75.96;99542.91;4817513;29;20057;-73